sensor_id;sensor_type;location;lat;lon;timestamp;pressure;altitude;pressure_sealevel;temperature;humidity
70198;BME280;57582;-34.876;138.628;2022-08-11T00:02:46;100559;;;12.08;64.47
70198;BME280;57582;-34.876;138.628;2022-08-11T00:05:46;100569;;;12.25;64.54
70198;BME280;57582;-34.876;138.628;2022-08-11T00:08:44;100567;;;12.39;64.40
70198;BME280;57582;-34.876;138.628;2022-08-11T00:11:45;100569;;;12.33;61.22
70198;BME280;57582;-34.876;138.628;2022-08-11T00:14:44;100570;;;12.47;61.99
70198;BME280;57582;-34.876;138.628;2022-08-11T00:17:44;100567;;;12.61;60.85
70198;BME280;57582;-34.876;138.628;2022-08-11T00:20:45;100567;;;12.63;59.82
70198;BME280;57582;-34.876;138.628;2022-08-11T00:23:45;100568;;;12.89;60.33
70198;BME280;57582;-34.876;138.628;2022-08-11T00:26:46;100570;;;13.07;58.90
70198;BME280;57582;-34.876;138.628;2022-08-11T00:29:52;100567;;;13.12;57.76
70198;BME280;57582;-34.876;138.628;2022-08-11T00:32:52;100571;;;13.16;57.54
70198;BME280;57582;-34.876;138.628;2022-08-11T00:35:44;100574;;;13.31;56.96
70198;BME280;57582;-34.876;138.628;2022-08-11T00:38:45;100562;;;13.49;56.62
70198;BME280;57582;-34.876;138.628;2022-08-11T01:14:52;100555;;;14.22;52.90
70198;BME280;57582;-34.876;138.628;2022-08-11T01:23:52;100547;;;14.35;51.90
70198;BME280;57582;-34.876;138.628;2022-08-11T01:27:05;100533;;;14.41;53.42
70198;BME280;57582;-34.876;138.628;2022-08-11T01:50:49;100524;;;14.96;52.24
70198;BME280;57582;-34.876;138.628;2022-08-11T01:53:47;100501;;;15.15;52.46
70198;BME280;57582;-34.876;138.628;2022-08-11T01:59:49;100488;;;15.36;49.92
70198;BME280;57582;-34.876;138.628;2022-08-11T02:02:57;100491;;;15.51;50.55
70198;BME280;57582;-34.876;138.628;2022-08-11T02:08:48;100469;;;15.61;50.28
70198;BME280;57582;-34.876;138.628;2022-08-11T02:11:44;100461;;;15.74;50.70
70198;BME280;57582;-34.876;138.628;2022-08-11T02:14:48;100461;;;15.98;49.21
70198;BME280;57582;-34.876;138.628;2022-08-11T02:20:54;100449;;;16.27;48.45
70198;BME280;57582;-34.876;138.628;2022-08-11T02:24:03;100451;;;16.22;46.40
70198;BME280;57582;-34.876;138.628;2022-08-11T02:26:46;100435;;;15.99;45.30
70198;BME280;57582;-34.876;138.628;2022-08-11T02:32:46;100431;;;16.35;46.99
70198;BME280;57582;-34.876;138.628;2022-08-11T02:35:48;100427;;;16.40;46.01
70198;BME280;57582;-34.876;138.628;2022-08-11T02:47:54;100375;;;16.54;44.04
70198;BME280;57582;-34.876;138.628;2022-08-11T02:50:51;100381;;;16.68;45.69
70198;BME280;57582;-34.876;138.628;2022-08-11T02:56:50;100376;;;16.67;45.28
70198;BME280;57582;-34.876;138.628;2022-08-11T03:02:49;100365;;;16.75;45.14
70198;BME280;57582;-34.876;138.628;2022-08-11T03:14:47;100346;;;16.01;46.28
70198;BME280;57582;-34.876;138.628;2022-08-11T03:20:50;100343;;;15.73;47.52
70198;BME280;57582;-34.876;138.628;2022-08-11T03:26:52;100333;;;15.49;48.12
70198;BME280;57582;-34.876;138.628;2022-08-11T03:35:49;100312;;;15.46;48.75
70198;BME280;57582;-34.876;138.628;2022-08-11T03:38:52;100304;;;15.56;48.15
70198;BME280;57582;-34.876;138.628;2022-08-11T03:59:52;100268;;;15.11;49.40
70198;BME280;57582;-34.876;138.628;2022-08-11T04:02:58;100260;;;15.10;49.94
70198;BME280;57582;-34.876;138.628;2022-08-11T04:05:48;100255;;;15.10;50.15
70198;BME280;57582;-34.876;138.628;2022-08-11T04:17:59;100266;;;15.13;51.84
70198;BME280;57582;-34.876;138.628;2022-08-11T04:26:55;100247;;;14.94;50.29
70198;BME280;57582;-34.876;138.628;2022-08-11T04:30:02;100253;;;14.86;51.87
70198;BME280;57582;-34.876;138.628;2022-08-11T04:56:45;100214;;;14.66;55.34
70198;BME280;57582;-34.876;138.628;2022-08-11T04:59:52;100208;;;14.52;54.14
70198;BME280;57582;-34.876;138.628;2022-08-11T05:03:06;100208;;;14.52;53.69
70198;BME280;57582;-34.876;138.628;2022-08-11T05:08:48;100213;;;14.58;52.42
70198;BME280;57582;-34.876;138.628;2022-08-11T05:14:47;100204;;;14.50;52.90
70198;BME280;57582;-34.876;138.628;2022-08-11T05:17:48;100213;;;14.52;53.90
70198;BME280;57582;-34.876;138.628;2022-08-11T05:20:46;100206;;;14.59;53.96
70198;BME280;57582;-34.876;138.628;2022-08-11T05:23:46;100209;;;14.66;55.69
70198;BME280;57582;-34.876;138.628;2022-08-11T05:26:45;100207;;;14.64;54.13
70198;BME280;57582;-34.876;138.628;2022-08-11T05:29:46;100206;;;14.58;54.48
70198;BME280;57582;-34.876;138.628;2022-08-11T05:32:45;100212;;;14.67;53.92
70198;BME280;57582;-34.876;138.628;2022-08-11T05:35:45;100206;;;14.74;53.85
70198;BME280;57582;-34.876;138.628;2022-08-11T05:39:05;100204;;;14.86;53.56
70198;BME280;57582;-34.876;138.628;2022-08-11T05:41:44;100205;;;14.91;53.41
70198;BME280;57582;-34.876;138.628;2022-08-11T05:44:45;100215;;;14.79;53.02
70198;BME280;57582;-34.876;138.628;2022-08-11T05:47:47;100215;;;14.91;53.14
70198;BME280;57582;-34.876;138.628;2022-08-11T05:50:53;100213;;;14.80;52.57
70198;BME280;57582;-34.876;138.628;2022-08-11T05:53:46;100203;;;14.88;52.92
70198;BME280;57582;-34.876;138.628;2022-08-11T05:56:48;100212;;;14.95;52.90
70198;BME280;57582;-34.876;138.628;2022-08-11T05:59:45;100199;;;14.99;52.85
70198;BME280;57582;-34.876;138.628;2022-08-11T06:02:48;100192;;;15.04;52.21
70198;BME280;57582;-34.876;138.628;2022-08-11T06:05:44;100186;;;15.32;51.83
70198;BME280;57582;-34.876;138.628;2022-08-11T06:08:45;100190;;;15.56;51.04
70198;BME280;57582;-34.876;138.628;2022-08-11T06:11:44;100179;;;15.76;50.19
70198;BME280;57582;-34.876;138.628;2022-08-11T06:14:45;100178;;;15.88;50.34
70198;BME280;57582;-34.876;138.628;2022-08-11T06:17:45;100188;;;15.78;50.94
70198;BME280;57582;-34.876;138.628;2022-08-11T06:20:48;100188;;;15.81;49.76
70198;BME280;57582;-34.876;138.628;2022-08-11T06:23:44;100191;;;15.60;50.31
70198;BME280;57582;-34.876;138.628;2022-08-11T06:26:47;100189;;;15.35;50.80
70198;BME280;57582;-34.876;138.628;2022-08-11T06:29:45;100187;;;15.51;51.62
70198;BME280;57582;-34.876;138.628;2022-08-11T06:32:45;100183;;;15.35;52.15
70198;BME280;57582;-34.876;138.628;2022-08-11T06:35:46;100169;;;15.36;52.52
70198;BME280;57582;-34.876;138.628;2022-08-11T06:41:46;100171;;;15.43;52.75
70198;BME280;57582;-34.876;138.628;2022-08-11T06:45:00;100176;;;15.39;53.57
70198;BME280;57582;-34.876;138.628;2022-08-11T06:47:44;100174;;;15.33;52.84
70198;BME280;57582;-34.876;138.628;2022-08-11T06:50:48;100172;;;15.37;52.54
70198;BME280;57582;-34.876;138.628;2022-08-11T06:56:45;100157;;;15.16;53.02
70198;BME280;57582;-34.876;138.628;2022-08-11T06:59:47;100166;;;15.15;53.81
70198;BME280;57582;-34.876;138.628;2022-08-11T07:08:59;100159;;;15.45;53.67
70198;BME280;57582;-34.876;138.628;2022-08-11T07:11:51;100161;;;15.55;52.68
70198;BME280;57582;-34.876;138.628;2022-08-11T07:14:50;100149;;;15.68;52.18
70198;BME280;57582;-34.876;138.628;2022-08-11T07:17:50;100140;;;15.75;51.71
70198;BME280;57582;-34.876;138.628;2022-08-11T07:20:45;100145;;;15.68;51.75
70198;BME280;57582;-34.876;138.628;2022-08-11T07:23:44;100138;;;15.77;51.39
70198;BME280;57582;-34.876;138.628;2022-08-11T07:26:47;100140;;;15.83;51.38
70198;BME280;57582;-34.876;138.628;2022-08-11T07:29:45;100144;;;15.69;51.79
70198;BME280;57582;-34.876;138.628;2022-08-11T07:32:54;100144;;;15.77;53.63
70198;BME280;57582;-34.876;138.628;2022-08-11T07:35:47;100142;;;15.81;53.19
70198;BME280;57582;-34.876;138.628;2022-08-11T07:38:47;100141;;;15.82;53.52
70198;BME280;57582;-34.876;138.628;2022-08-11T07:41:44;100135;;;15.80;53.63
70198;BME280;57582;-34.876;138.628;2022-08-11T07:44:45;100133;;;15.74;53.11
70198;BME280;57582;-34.876;138.628;2022-08-11T07:47:45;100135;;;15.79;53.49
70198;BME280;57582;-34.876;138.628;2022-08-11T07:50:45;100143;;;15.54;53.34
70198;BME280;57582;-34.876;138.628;2022-08-11T07:53:44;100131;;;15.17;53.95
70198;BME280;57582;-34.876;138.628;2022-08-11T07:56:45;100134;;;15.09;54.68
70198;BME280;57582;-34.876;138.628;2022-08-11T07:59:44;100133;;;15.15;54.99
70198;BME280;57582;-34.876;138.628;2022-08-11T08:02:45;100132;;;15.14;54.89
70198;BME280;57582;-34.876;138.628;2022-08-11T08:05:46;100143;;;14.98;55.64
70198;BME280;57582;-34.876;138.628;2022-08-11T08:08:45;100136;;;14.92;55.52
70198;BME280;57582;-34.876;138.628;2022-08-11T08:11:45;100140;;;14.94;55.70
70198;BME280;57582;-34.876;138.628;2022-08-11T08:14:45;100138;;;14.78;56.05
70198;BME280;57582;-34.876;138.628;2022-08-11T08:17:45;100144;;;14.77;56.27
70198;BME280;57582;-34.876;138.628;2022-08-11T08:20:46;100149;;;14.48;57.64
70198;BME280;57582;-34.876;138.628;2022-08-11T08:23:45;100133;;;14.33;59.11
70198;BME280;57582;-34.876;138.628;2022-08-11T08:26:47;100140;;;14.01;60.48
70198;BME280;57582;-34.876;138.628;2022-08-11T08:29:45;100147;;;13.86;60.97
70198;BME280;57582;-34.876;138.628;2022-08-11T08:32:45;100151;;;13.75;61.91
70198;BME280;57582;-34.876;138.628;2022-08-11T08:35:45;100154;;;13.74;62.20
70198;BME280;57582;-34.876;138.628;2022-08-11T08:38:47;100163;;;13.79;62.34
70198;BME280;57582;-34.876;138.628;2022-08-11T08:41:45;100165;;;13.77;62.99
70198;BME280;57582;-34.876;138.628;2022-08-11T08:44:45;100165;;;13.61;64.57
70198;BME280;57582;-34.876;138.628;2022-08-11T08:47:46;100166;;;13.78;64.24
70198;BME280;57582;-34.876;138.628;2022-08-11T08:50:48;100162;;;13.70;64.75
70198;BME280;57582;-34.876;138.628;2022-08-11T08:53:47;100165;;;13.71;64.99
70198;BME280;57582;-34.876;138.628;2022-08-11T08:56:45;100172;;;13.76;65.31
70198;BME280;57582;-34.876;138.628;2022-08-11T08:59:45;100169;;;13.75;65.04
70198;BME280;57582;-34.876;138.628;2022-08-11T09:02:45;100181;;;13.80;65.25
70198;BME280;57582;-34.876;138.628;2022-08-11T09:05:45;100175;;;13.67;65.82
70198;BME280;57582;-34.876;138.628;2022-08-11T09:08:45;100180;;;13.59;66.35
70198;BME280;57582;-34.876;138.628;2022-08-11T09:11:45;100191;;;13.59;66.55
70198;BME280;57582;-34.876;138.628;2022-08-11T09:14:46;100184;;;13.75;66.16
70198;BME280;57582;-34.876;138.628;2022-08-11T09:17:45;100191;;;13.55;67.19
70198;BME280;57582;-34.876;138.628;2022-08-11T09:20:45;100189;;;13.62;67.33
70198;BME280;57582;-34.876;138.628;2022-08-11T09:23:45;100197;;;13.55;67.92
70198;BME280;57582;-34.876;138.628;2022-08-11T09:26:45;100188;;;13.67;67.69
70198;BME280;57582;-34.876;138.628;2022-08-11T09:29:45;100189;;;13.80;67.65
70198;BME280;57582;-34.876;138.628;2022-08-11T09:32:45;100200;;;13.69;68.56
70198;BME280;57582;-34.876;138.628;2022-08-11T09:35:45;100194;;;13.69;69.16
70198;BME280;57582;-34.876;138.628;2022-08-11T09:38:45;100186;;;13.64;69.57
70198;BME280;57582;-34.876;138.628;2022-08-11T09:41:45;100188;;;13.52;70.19
70198;BME280;57582;-34.876;138.628;2022-08-11T09:44:45;100189;;;13.43;71.29
70198;BME280;57582;-34.876;138.628;2022-08-11T09:47:45;100187;;;13.53;71.15
70198;BME280;57582;-34.876;138.628;2022-08-11T09:50:48;100186;;;13.49;71.63
70198;BME280;57582;-34.876;138.628;2022-08-11T09:53:45;100186;;;13.59;71.49
70198;BME280;57582;-34.876;138.628;2022-08-11T09:56:45;100181;;;13.52;72.11
70198;BME280;57582;-34.876;138.628;2022-08-11T09:59:45;100178;;;13.46;73.02
70198;BME280;57582;-34.876;138.628;2022-08-11T10:02:46;100188;;;13.34;73.80
70198;BME280;57582;-34.876;138.628;2022-08-11T10:05:47;100201;;;13.14;74.41
70198;BME280;57582;-34.876;138.628;2022-08-11T10:08:45;100195;;;13.23;74.22
70198;BME280;57582;-34.876;138.628;2022-08-11T10:11:45;100201;;;13.06;74.80
70198;BME280;57582;-34.876;138.628;2022-08-11T10:14:45;100201;;;13.01;75.06
70198;BME280;57582;-34.876;138.628;2022-08-11T10:17:46;100199;;;12.86;75.54
70198;BME280;57582;-34.876;138.628;2022-08-11T10:20:46;100196;;;13.05;75.22
70198;BME280;57582;-34.876;138.628;2022-08-11T10:23:45;100188;;;13.13;74.74
70198;BME280;57582;-34.876;138.628;2022-08-11T10:26:46;100209;;;13.15;75.34
70198;BME280;57582;-34.876;138.628;2022-08-11T10:29:45;100201;;;12.91;77.02
70198;BME280;57582;-34.876;138.628;2022-08-11T10:32:45;100209;;;13.03;77.05
70198;BME280;57582;-34.876;138.628;2022-08-11T10:35:45;100203;;;13.09;76.92
70198;BME280;57582;-34.876;138.628;2022-08-11T10:38:45;100206;;;13.09;77.21
70198;BME280;57582;-34.876;138.628;2022-08-11T10:41:45;100202;;;13.00;77.42
70198;BME280;57582;-34.876;138.628;2022-08-11T10:44:47;100207;;;12.91;78.52
70198;BME280;57582;-34.876;138.628;2022-08-11T10:47:45;100200;;;12.93;78.74
70198;BME280;57582;-34.876;138.628;2022-08-11T10:50:45;100207;;;13.08;77.03
70198;BME280;57582;-34.876;138.628;2022-08-11T10:53:46;100204;;;13.09;76.45
70198;BME280;57582;-34.876;138.628;2022-08-11T10:56:46;100207;;;13.16;77.02
70198;BME280;57582;-34.876;138.628;2022-08-11T10:59:45;100207;;;13.21;76.14
70198;BME280;57582;-34.876;138.628;2022-08-11T11:02:45;100201;;;13.37;75.77
70198;BME280;57582;-34.876;138.628;2022-08-11T11:05:45;100212;;;13.47;75.92
70198;BME280;57582;-34.876;138.628;2022-08-11T11:08:45;100214;;;13.46;75.65
70198;BME280;57582;-34.876;138.628;2022-08-11T11:11:47;100202;;;13.16;77.69
70198;BME280;57582;-34.876;138.628;2022-08-11T11:17:47;100200;;;13.00;78.64
70198;BME280;57582;-34.876;138.628;2022-08-11T11:20:53;100199;;;12.90;79.42
70198;BME280;57582;-34.876;138.628;2022-08-11T11:23:50;100200;;;12.93;78.87
70198;BME280;57582;-34.876;138.628;2022-08-11T11:26:52;100195;;;12.92;78.67
70198;BME280;57582;-34.876;138.628;2022-08-11T11:30:04;100198;;;12.79;79.13
70198;BME280;57582;-34.876;138.628;2022-08-11T11:32:52;100192;;;12.79;78.88
70198;BME280;57582;-34.876;138.628;2022-08-11T11:38:47;100204;;;12.89;78.57
70198;BME280;57582;-34.876;138.628;2022-08-11T11:41:48;100192;;;13.07;77.59
70198;BME280;57582;-34.876;138.628;2022-08-11T11:44:45;100194;;;13.08;77.20
70198;BME280;57582;-34.876;138.628;2022-08-11T11:47:45;100201;;;13.30;76.43
70198;BME280;57582;-34.876;138.628;2022-08-11T11:50:46;100198;;;13.25;76.58
70198;BME280;57582;-34.876;138.628;2022-08-11T11:53:45;100188;;;13.29;76.61
70198;BME280;57582;-34.876;138.628;2022-08-11T11:56:47;100200;;;13.13;77.19
70198;BME280;57582;-34.876;138.628;2022-08-11T11:59:45;100200;;;13.20;77.51
70198;BME280;57582;-34.876;138.628;2022-08-11T12:02:45;100199;;;13.29;77.65
70198;BME280;57582;-34.876;138.628;2022-08-11T12:05:45;100202;;;13.41;77.57
70198;BME280;57582;-34.876;138.628;2022-08-11T12:08:47;100234;;;13.55;77.42
70198;BME280;57582;-34.876;138.628;2022-08-11T12:11:45;100234;;;13.31;77.32
70198;BME280;57582;-34.876;138.628;2022-08-11T12:14:46;100242;;;13.13;78.38
70198;BME280;57582;-34.876;138.628;2022-08-11T12:17:46;100248;;;12.98;79.66
70198;BME280;57582;-34.876;138.628;2022-08-11T12:20:46;100241;;;12.96;79.87
70198;BME280;57582;-34.876;138.628;2022-08-11T12:23:46;100254;;;13.07;79.48
70198;BME280;57582;-34.876;138.628;2022-08-11T12:26:47;100247;;;13.16;79.30
70198;BME280;57582;-34.876;138.628;2022-08-11T12:30:02;100240;;;13.21;78.94
70198;BME280;57582;-34.876;138.628;2022-08-11T12:32:45;100239;;;13.43;78.20
70198;BME280;57582;-34.876;138.628;2022-08-11T12:35:46;100243;;;13.26;78.23
70198;BME280;57582;-34.876;138.628;2022-08-11T12:38:49;100245;;;13.37;78.26
70198;BME280;57582;-34.876;138.628;2022-08-11T12:41:45;100243;;;13.31;78.59
70198;BME280;57582;-34.876;138.628;2022-08-11T12:44:47;100247;;;13.39;78.59
70198;BME280;57582;-34.876;138.628;2022-08-11T12:47:48;100240;;;13.31;78.52
70198;BME280;57582;-34.876;138.628;2022-08-11T12:50:47;100238;;;13.36;78.47
70198;BME280;57582;-34.876;138.628;2022-08-11T12:53:55;100244;;;13.41;78.07
70198;BME280;57582;-34.876;138.628;2022-08-11T12:56:49;100245;;;13.29;78.26
70198;BME280;57582;-34.876;138.628;2022-08-11T12:59:45;100245;;;13.40;77.92
70198;BME280;57582;-34.876;138.628;2022-08-11T13:02:46;100238;;;13.49;77.37
70198;BME280;57582;-34.876;138.628;2022-08-11T13:05:46;100238;;;13.54;76.90
70198;BME280;57582;-34.876;138.628;2022-08-11T13:08:48;100235;;;13.49;76.58
70198;BME280;57582;-34.876;138.628;2022-08-11T13:11:48;100236;;;13.48;76.63
70198;BME280;57582;-34.876;138.628;2022-08-11T13:14:48;100232;;;13.23;77.33
70198;BME280;57582;-34.876;138.628;2022-08-11T13:17:45;100231;;;13.19;77.85
70198;BME280;57582;-34.876;138.628;2022-08-11T13:20:48;100230;;;13.07;78.14
70198;BME280;57582;-34.876;138.628;2022-08-11T13:23:45;100235;;;12.84;78.77
70198;BME280;57582;-34.876;138.628;2022-08-11T13:26:47;100232;;;12.66;79.72
70198;BME280;57582;-34.876;138.628;2022-08-11T13:29:45;100233;;;12.68;80.01
70198;BME280;57582;-34.876;138.628;2022-08-11T13:32:47;100234;;;12.71;79.78
70198;BME280;57582;-34.876;138.628;2022-08-11T13:35:45;100234;;;12.75;79.54
70198;BME280;57582;-34.876;138.628;2022-08-11T13:38:46;100236;;;12.53;80.01
70198;BME280;57582;-34.876;138.628;2022-08-11T13:41:45;100233;;;12.47;80.59
70198;BME280;57582;-34.876;138.628;2022-08-11T13:44:48;100234;;;12.33;81.38
70198;BME280;57582;-34.876;138.628;2022-08-11T13:47:45;100229;;;12.28;81.55
70198;BME280;57582;-34.876;138.628;2022-08-11T13:50:46;100227;;;12.28;81.81
70198;BME280;57582;-34.876;138.628;2022-08-11T13:53:45;100229;;;12.25;82.02
70198;BME280;57582;-34.876;138.628;2022-08-11T13:56:49;100231;;;12.21;82.18
70198;BME280;57582;-34.876;138.628;2022-08-11T13:59:46;100232;;;12.37;81.82
70198;BME280;57582;-34.876;138.628;2022-08-11T14:02:48;100234;;;12.43;81.42
70198;BME280;57582;-34.876;138.628;2022-08-11T14:05:46;100230;;;12.44;81.52
70198;BME280;57582;-34.876;138.628;2022-08-11T14:08:46;100222;;;12.52;81.23
70198;BME280;57582;-34.876;138.628;2022-08-11T14:11:45;100230;;;12.52;81.29
70198;BME280;57582;-34.876;138.628;2022-08-11T14:15:04;100229;;;12.64;80.85
70198;BME280;57582;-34.876;138.628;2022-08-11T14:17:50;100238;;;12.53;81.00
70198;BME280;57582;-34.876;138.628;2022-08-11T14:20:48;100243;;;12.58;81.03
70198;BME280;57582;-34.876;138.628;2022-08-11T14:23:46;100246;;;12.52;81.34
70198;BME280;57582;-34.876;138.628;2022-08-11T14:26:46;100243;;;12.51;81.64
70198;BME280;57582;-34.876;138.628;2022-08-11T14:29:45;100245;;;12.45;81.75
70198;BME280;57582;-34.876;138.628;2022-08-11T14:32:48;100240;;;12.35;81.80
70198;BME280;57582;-34.876;138.628;2022-08-11T14:35:47;100241;;;12.27;82.64
70198;BME280;57582;-34.876;138.628;2022-08-11T14:38:45;100232;;;12.27;82.49
70198;BME280;57582;-34.876;138.628;2022-08-11T14:41:46;100244;;;12.27;82.64
70198;BME280;57582;-34.876;138.628;2022-08-11T14:44:46;100239;;;12.26;83.00
70198;BME280;57582;-34.876;138.628;2022-08-11T14:47:46;100235;;;12.17;83.17
70198;BME280;57582;-34.876;138.628;2022-08-11T14:50:45;100236;;;12.21;83.18
70198;BME280;57582;-34.876;138.628;2022-08-11T14:53:45;100226;;;12.18;83.41
70198;BME280;57582;-34.876;138.628;2022-08-11T14:56:46;100228;;;12.32;82.86
70198;BME280;57582;-34.876;138.628;2022-08-11T14:59:46;100237;;;12.41;82.36
70198;BME280;57582;-34.876;138.628;2022-08-11T15:02:46;100237;;;12.51;81.72
70198;BME280;57582;-34.876;138.628;2022-08-11T15:05:47;100242;;;12.52;81.61
70198;BME280;57582;-34.876;138.628;2022-08-11T15:08:46;100235;;;12.50;81.76
70198;BME280;57582;-34.876;138.628;2022-08-11T15:11:45;100240;;;12.56;81.65
70198;BME280;57582;-34.876;138.628;2022-08-11T15:14:46;100235;;;12.46;82.04
70198;BME280;57582;-34.876;138.628;2022-08-11T15:17:45;100230;;;12.53;81.96
70198;BME280;57582;-34.876;138.628;2022-08-11T15:20:45;100237;;;12.51;82.15
70198;BME280;57582;-34.876;138.628;2022-08-11T15:23:45;100230;;;12.58;81.46
70198;BME280;57582;-34.876;138.628;2022-08-11T15:26:45;100234;;;12.48;81.81
70198;BME280;57582;-34.876;138.628;2022-08-11T15:29:45;100246;;;12.56;81.74
70198;BME280;57582;-34.876;138.628;2022-08-11T15:32:45;100241;;;12.55;81.64
70198;BME280;57582;-34.876;138.628;2022-08-11T15:35:45;100240;;;12.53;81.65
70198;BME280;57582;-34.876;138.628;2022-08-11T15:38:51;100239;;;12.58;81.46
70198;BME280;57582;-34.876;138.628;2022-08-11T15:41:49;100228;;;12.73;81.14
70198;BME280;57582;-34.876;138.628;2022-08-11T15:44:49;100238;;;12.74;80.88
70198;BME280;57582;-34.876;138.628;2022-08-11T15:47:48;100233;;;12.83;80.77
70198;BME280;57582;-34.876;138.628;2022-08-11T15:50:47;100236;;;12.89;80.36
70198;BME280;57582;-34.876;138.628;2022-08-11T15:53:46;100230;;;12.86;80.18
70198;BME280;57582;-34.876;138.628;2022-08-11T15:56:49;100226;;;12.88;80.05
70198;BME280;57582;-34.876;138.628;2022-08-11T15:59:45;100223;;;12.91;79.82
70198;BME280;57582;-34.876;138.628;2022-08-11T16:02:47;100223;;;12.88;80.00
70198;BME280;57582;-34.876;138.628;2022-08-11T16:05:45;100218;;;12.91;79.77
70198;BME280;57582;-34.876;138.628;2022-08-11T16:08:45;100224;;;12.99;79.49
70198;BME280;57582;-34.876;138.628;2022-08-11T16:11:45;100215;;;13.03;79.37
70198;BME280;57582;-34.876;138.628;2022-08-11T16:14:47;100210;;;13.00;79.37
70198;BME280;57582;-34.876;138.628;2022-08-11T16:17:49;100214;;;12.92;79.56
70198;BME280;57582;-34.876;138.628;2022-08-11T16:20:46;100216;;;12.90;79.32
70198;BME280;57582;-34.876;138.628;2022-08-11T16:23:46;100214;;;12.76;79.59
70198;BME280;57582;-34.876;138.628;2022-08-11T16:26:46;100211;;;12.71;79.95
70198;BME280;57582;-34.876;138.628;2022-08-11T16:29:46;100210;;;12.59;80.40
70198;BME280;57582;-34.876;138.628;2022-08-11T16:32:47;100208;;;12.59;80.29
70198;BME280;57582;-34.876;138.628;2022-08-11T16:35:45;100212;;;12.59;80.46
70198;BME280;57582;-34.876;138.628;2022-08-11T16:38:46;100202;;;12.66;80.44
70198;BME280;57582;-34.876;138.628;2022-08-11T16:41:46;100209;;;12.60;80.30
70198;BME280;57582;-34.876;138.628;2022-08-11T16:44:46;100216;;;12.63;80.15
70198;BME280;57582;-34.876;138.628;2022-08-11T16:47:45;100203;;;12.70;79.99
70198;BME280;57582;-34.876;138.628;2022-08-11T16:50:46;100209;;;12.57;80.21
70198;BME280;57582;-34.876;138.628;2022-08-11T16:53:46;100211;;;12.55;80.48
70198;BME280;57582;-34.876;138.628;2022-08-11T16:56:51;100205;;;12.35;81.38
70198;BME280;57582;-34.876;138.628;2022-08-11T16:59:45;100205;;;12.25;82.10
70198;BME280;57582;-34.876;138.628;2022-08-11T17:02:49;100203;;;12.13;82.81
70198;BME280;57582;-34.876;138.628;2022-08-11T17:05:53;100196;;;12.10;83.15
70198;BME280;57582;-34.876;138.628;2022-08-11T17:08:47;100196;;;12.10;83.39
70198;BME280;57582;-34.876;138.628;2022-08-11T17:11:49;100191;;;12.10;83.37
70198;BME280;57582;-34.876;138.628;2022-08-11T17:14:51;100195;;;12.19;82.83
70198;BME280;57582;-34.876;138.628;2022-08-11T17:17:46;100194;;;12.22;82.71
70198;BME280;57582;-34.876;138.628;2022-08-11T17:20:46;100191;;;12.35;82.11
70198;BME280;57582;-34.876;138.628;2022-08-11T17:23:54;100189;;;12.45;81.63
70198;BME280;57582;-34.876;138.628;2022-08-11T17:26:46;100184;;;12.51;81.41
70198;BME280;57582;-34.876;138.628;2022-08-11T17:29:51;100180;;;12.64;80.89
70198;BME280;57582;-34.876;138.628;2022-08-11T17:32:47;100182;;;12.73;80.42
70198;BME280;57582;-34.876;138.628;2022-08-11T17:35:45;100177;;;12.77;80.31
70198;BME280;57582;-34.876;138.628;2022-08-11T17:38:47;100173;;;12.87;80.07
70198;BME280;57582;-34.876;138.628;2022-08-11T17:41:45;100174;;;12.78;80.44
70198;BME280;57582;-34.876;138.628;2022-08-11T17:44:46;100171;;;12.65;81.16
70198;BME280;57582;-34.876;138.628;2022-08-11T17:47:46;100185;;;12.63;81.50
70198;BME280;57582;-34.876;138.628;2022-08-11T17:50:47;100183;;;12.74;81.50
70198;BME280;57582;-34.876;138.628;2022-08-11T17:53:45;100184;;;12.76;81.23
70198;BME280;57582;-34.876;138.628;2022-08-11T17:56:46;100175;;;12.75;81.29
70198;BME280;57582;-34.876;138.628;2022-08-11T17:59:45;100180;;;12.72;81.45
70198;BME280;57582;-34.876;138.628;2022-08-11T18:02:46;100185;;;12.72;81.41
70198;BME280;57582;-34.876;138.628;2022-08-11T18:05:45;100177;;;12.65;81.50
70198;BME280;57582;-34.876;138.628;2022-08-11T18:08:46;100180;;;12.59;81.89
70198;BME280;57582;-34.876;138.628;2022-08-11T18:11:46;100188;;;12.70;81.50
70198;BME280;57582;-34.876;138.628;2022-08-11T18:14:47;100188;;;12.67;81.54
70198;BME280;57582;-34.876;138.628;2022-08-11T18:17:45;100192;;;12.76;81.31
70198;BME280;57582;-34.876;138.628;2022-08-11T18:20:46;100189;;;12.79;80.80
70198;BME280;57582;-34.876;138.628;2022-08-11T18:23:45;100186;;;12.82;80.63
70198;BME280;57582;-34.876;138.628;2022-08-11T18:26:46;100193;;;12.89;80.47
70198;BME280;57582;-34.876;138.628;2022-08-11T18:29:47;100190;;;12.98;80.06
70198;BME280;57582;-34.876;138.628;2022-08-11T18:32:46;100196;;;12.94;80.27
70198;BME280;57582;-34.876;138.628;2022-08-11T18:35:48;100190;;;12.96;80.05
70198;BME280;57582;-34.876;138.628;2022-08-11T18:38:46;100186;;;12.97;79.88
70198;BME280;57582;-34.876;138.628;2022-08-11T18:41:45;100190;;;13.04;79.69
70198;BME280;57582;-34.876;138.628;2022-08-11T18:44:46;100187;;;13.18;79.12
70198;BME280;57582;-34.876;138.628;2022-08-11T18:47:47;100185;;;13.27;78.78
70198;BME280;57582;-34.876;138.628;2022-08-11T18:50:46;100178;;;13.24;78.63